sensor_id;sensor_type;location;lat;lon;timestamp;temperature;humidity
14252;DHT22;7210;51.502;10.722;2023-11-21T00:00:05;2.50;35.10
14252;DHT22;7210;51.502;10.722;2023-11-21T00:02:38;2.50;41.80
14252;DHT22;7210;51.502;10.722;2023-11-21T00:05:07;2.40;48.10
14252;DHT22;7210;51.502;10.722;2023-11-21T00:07:36;2.40;51.60
14252;DHT22;7210;51.502;10.722;2023-11-21T00:10:04;2.30;53.80
14252;DHT22;7210;51.502;10.722;2023-11-21T00:12:32;2.20;47.20
14252;DHT22;7210;51.502;10.722;2023-11-21T00:15:05;2.20;40.10
14252;DHT22;7210;51.502;10.722;2023-11-21T00:17:40;2.20;33.40
14252;DHT22;7210;51.502;10.722;2023-11-21T00:20:08;2.20;31.00
14252;DHT22;7210;51.502;10.722;2023-11-21T00:22:39;2.20;31.20
14252;DHT22;7210;51.502;10.722;2023-11-21T00:25:07;2.20;25.60
14252;DHT22;7210;51.502;10.722;2023-11-21T00:27:34;2.20;35.20
14252;DHT22;7210;51.502;10.722;2023-11-21T00:30:02;2.20;32.90
14252;DHT22;7210;51.502;10.722;2023-11-21T00:32:31;2.20;34.30
14252;DHT22;7210;51.502;10.722;2023-11-21T00:34:58;2.20;32.10
14252;DHT22;7210;51.502;10.722;2023-11-21T00:37:28;2.20;26.50
14252;DHT22;7210;51.502;10.722;2023-11-21T00:39:56;2.20;12.60
14252;DHT22;7210;51.502;10.722;2023-11-21T00:42:23;2.20;17.70
14252;DHT22;7210;51.502;10.722;2023-11-21T00:44:50;2.20;16.30
14252;DHT22;7210;51.502;10.722;2023-11-21T00:47:17;2.10;19.20
14252;DHT22;7210;51.502;10.722;2023-11-21T00:49:44;2.00;21.80
14252;DHT22;7210;51.502;10.722;2023-11-21T00:52:11;2.00;27.10
14252;DHT22;7210;51.502;10.722;2023-11-21T00:54:38;1.90;24.30
14252;DHT22;7210;51.502;10.722;2023-11-21T00:57:12;1.90;18.30
14252;DHT22;7210;51.502;10.722;2023-11-21T00:59:39;1.90;14.60
14252;DHT22;7210;51.502;10.722;2023-11-21T01:02:06;2.00;14.30
14252;DHT22;7210;51.502;10.722;2023-11-21T01:04:40;2.00;3.50
14252;DHT22;7210;51.502;10.722;2023-11-21T01:07:07;2.00;1.50
14252;DHT22;7210;51.502;10.722;2023-11-21T01:09:35;2.00;1.00
14252;DHT22;7210;51.502;10.722;2023-11-21T01:12:02;2.00;6.60
14252;DHT22;7210;51.502;10.722;2023-11-21T01:14:35;2.10;1.50
14252;DHT22;7210;51.502;10.722;2023-11-21T01:17:05;2.10;1.00
14252;DHT22;7210;51.502;10.722;2023-11-21T01:19:40;2.10;1.00
14252;DHT22;7210;51.502;10.722;2023-11-21T01:22:07;2.10;1.00
14252;DHT22;7210;51.502;10.722;2023-11-21T01:24:40;2.10;1.00
14252;DHT22;7210;51.502;10.722;2023-11-21T01:27:07;2.10;1.00
14252;DHT22;7210;51.502;10.722;2023-11-21T01:29:35;2.10;1.00
14252;DHT22;7210;51.502;10.722;2023-11-21T01:32:03;2.10;1.00
14252;DHT22;7210;51.502;10.722;2023-11-21T01:34:30;2.00;1.00
14252;DHT22;7210;51.502;10.722;2023-11-21T01:36:57;2.00;1.00
14252;DHT22;7210;51.502;10.722;2023-11-21T01:39:52;2.00;1.60
14252;DHT22;7210;51.502;10.722;2023-11-21T01:42:19;2.00;6.40
14252;DHT22;7210;51.502;10.722;2023-11-21T01:44:47;1.90;7.60
14252;DHT22;7210;51.502;10.722;2023-11-21T01:47:14;1.90;4.70
14252;DHT22;7210;51.502;10.722;2023-11-21T01:49:44;1.90;1.00
14252;DHT22;7210;51.502;10.722;2023-11-21T01:52:16;1.90;1.00
14252;DHT22;7210;51.502;10.722;2023-11-21T01:54:46;2.00;1.00
14252;DHT22;7210;51.502;10.722;2023-11-21T01:57:16;2.00;1.00
14252;DHT22;7210;51.502;10.722;2023-11-21T01:59:49;2.10;1.00
14252;DHT22;7210;51.502;10.722;2023-11-21T02:02:16;2.10;1.00
14252;DHT22;7210;51.502;10.722;2023-11-21T02:04:44;2.10;6.40
14252;DHT22;7210;51.502;10.722;2023-11-21T02:07:16;2.10;14.50
14252;DHT22;7210;51.502;10.722;2023-11-21T02:09:46;2.00;14.10
14252;DHT22;7210;51.502;10.722;2023-11-21T02:12:34;1.90;17.90
14252;DHT22;7210;51.502;10.722;2023-11-21T02:15:04;1.90;11.80
14252;DHT22;7210;51.502;10.722;2023-11-21T02:17:46;1.90;10.70
14252;DHT22;7210;51.502;10.722;2023-11-21T02:20:17;1.80;5.80
14252;DHT22;7210;51.502;10.722;2023-11-21T02:22:50;1.80;8.00
14252;DHT22;7210;51.502;10.722;2023-11-21T02:25:29;1.80;4.60
14252;DHT22;7210;51.502;10.722;2023-11-21T02:28:10;1.90;1.00
14252;DHT22;7210;51.502;10.722;2023-11-21T02:30:40;1.90;1.70
14252;DHT22;7210;51.502;10.722;2023-11-21T02:33:08;1.90;1.10
14252;DHT22;7210;51.502;10.722;2023-11-21T02:35:35;2.00;1.00
14252;DHT22;7210;51.502;10.722;2023-11-21T02:38:03;2.00;5.00
14252;DHT22;7210;51.502;10.722;2023-11-21T02:40:32;1.90;2.60
14252;DHT22;7210;51.502;10.722;2023-11-21T02:43:04;1.90;13.80
14252;DHT22;7210;51.502;10.722;2023-11-21T02:45:31;1.80;11.70
14252;DHT22;7210;51.502;10.722;2023-11-21T02:47:58;1.80;10.70
14252;DHT22;7210;51.502;10.722;2023-11-21T02:50:25;1.70;7.90
14252;DHT22;7210;51.502;10.722;2023-11-21T02:52:52;1.70;7.80
14252;DHT22;7210;51.502;10.722;2023-11-21T02:55:21;1.70;5.80
14252;DHT22;7210;51.502;10.722;2023-11-21T02:57:52;1.70;1.60
14252;DHT22;7210;51.502;10.722;2023-11-21T03:00:19;1.70;1.00
14252;DHT22;7210;51.502;10.722;2023-11-21T03:02:54;1.70;1.00
14252;DHT22;7210;51.502;10.722;2023-11-21T03:05:21;1.70;1.00
14252;DHT22;7210;51.502;10.722;2023-11-21T03:07:52;1.70;1.00
14252;DHT22;7210;51.502;10.722;2023-11-21T03:10:20;1.70;1.00
14252;DHT22;7210;51.502;10.722;2023-11-21T03:12:49;1.70;1.00
14252;DHT22;7210;51.502;10.722;2023-11-21T03:15:16;1.80;1.00
14252;DHT22;7210;51.502;10.722;2023-11-21T03:17:46;1.80;1.00
14252;DHT22;7210;51.502;10.722;2023-11-21T03:20:15;1.80;1.00
14252;DHT22;7210;51.502;10.722;2023-11-21T03:22:42;1.70;1.00
14252;DHT22;7210;51.502;10.722;2023-11-21T03:25:09;1.60;1.00
14252;DHT22;7210;51.502;10.722;2023-11-21T03:27:38;1.60;1.00
14252;DHT22;7210;51.502;10.722;2023-11-21T03:30:09;1.60;1.00
14252;DHT22;7210;51.502;10.722;2023-11-21T03:32:40;1.60;1.00
14252;DHT22;7210;51.502;10.722;2023-11-21T03:35:07;1.50;2.70
14252;DHT22;7210;51.502;10.722;2023-11-21T03:37:35;1.50;9.90
14252;DHT22;7210;51.502;10.722;2023-11-21T03:40:05;1.40;9.20
14252;DHT22;7210;51.502;10.722;2023-11-21T03:42:33;1.40;4.10
14252;DHT22;7210;51.502;10.722;2023-11-21T03:45:02;1.40;1.00
14252;DHT22;7210;51.502;10.722;2023-11-21T03:47:30;1.40;1.00
14252;DHT22;7210;51.502;10.722;2023-11-21T03:49:58;1.40;1.00
14252;DHT22;7210;51.502;10.722;2023-11-21T03:52:25;1.50;1.00
14252;DHT22;7210;51.502;10.722;2023-11-21T03:54:53;1.50;1.00
14252;DHT22;7210;51.502;10.722;2023-11-21T03:57:20;1.60;1.00
14252;DHT22;7210;51.502;10.722;2023-11-21T03:59:47;1.60;1.00
14252;DHT22;7210;51.502;10.722;2023-11-21T04:02:16;1.60;1.00
14252;DHT22;7210;51.502;10.722;2023-11-21T04:04:43;1.60;1.00
14252;DHT22;7210;51.502;10.722;2023-11-21T04:07:10;1.70;1.00
14252;DHT22;7210;51.502;10.722;2023-11-21T04:09:39;1.80;1.00
14252;DHT22;7210;51.502;10.722;2023-11-21T04:12:07;1.90;1.00
14252;DHT22;7210;51.502;10.722;2023-11-21T04:14:34;2.00;1.00
14252;DHT22;7210;51.502;10.722;2023-11-21T04:17:04;2.10;1.00
14252;DHT22;7210;51.502;10.722;2023-11-21T04:19:33;2.10;1.00
14252;DHT22;7210;51.502;10.722;2023-11-21T04:21:59;2.10;1.00
14252;DHT22;7210;51.502;10.722;2023-11-21T04:24:26;2.20;1.00
14252;DHT22;7210;51.502;10.722;2023-11-21T04:26:53;2.20;1.00
14252;DHT22;7210;51.502;10.722;2023-11-21T04:29:20;2.30;1.00
14252;DHT22;7210;51.502;10.722;2023-11-21T04:31:58;2.40;1.00
14252;DHT22;7210;51.502;10.722;2023-11-21T04:34:28;2.50;1.00
14252;DHT22;7210;51.502;10.722;2023-11-21T04:36:57;2.50;1.00
14252;DHT22;7210;51.502;10.722;2023-11-21T04:39:28;2.60;1.00
14252;DHT22;7210;51.502;10.722;2023-11-21T04:41:58;2.60;1.00
14252;DHT22;7210;51.502;10.722;2023-11-21T04:44:25;2.60;1.00
14252;DHT22;7210;51.502;10.722;2023-11-21T04:46:52;2.60;1.00
14252;DHT22;7210;51.502;10.722;2023-11-21T04:49:19;2.60;1.00
14252;DHT22;7210;51.502;10.722;2023-11-21T04:51:46;2.60;1.00
14252;DHT22;7210;51.502;10.722;2023-11-21T04:54:14;2.70;1.00
14252;DHT22;7210;51.502;10.722;2023-11-21T04:56:52;2.70;1.00
14252;DHT22;7210;51.502;10.722;2023-11-21T04:59:22;2.70;1.00
14252;DHT22;7210;51.502;10.722;2023-11-21T05:01:58;2.70;1.00
14252;DHT22;7210;51.502;10.722;2023-11-21T05:04:26;2.80;1.00
14252;DHT22;7210;51.502;10.722;2023-11-21T05:06:53;2.90;1.00
14252;DHT22;7210;51.502;10.722;2023-11-21T05:09:23;2.90;1.00
14252;DHT22;7210;51.502;10.722;2023-11-21T05:11:50;3.00;1.00
14252;DHT22;7210;51.502;10.722;2023-11-21T05:14:22;3.10;1.00
14252;DHT22;7210;51.502;10.722;2023-11-21T05:16:49;3.10;1.00
14252;DHT22;7210;51.502;10.722;2023-11-21T05:19:22;3.10;1.00
14252;DHT22;7210;51.502;10.722;2023-11-21T05:21:49;3.10;1.00
14252;DHT22;7210;51.502;10.722;2023-11-21T05:24:16;3.10;1.00
14252;DHT22;7210;51.502;10.722;2023-11-21T05:26:48;3.20;1.00
14252;DHT22;7210;51.502;10.722;2023-11-21T05:29:16;3.30;1.00
14252;DHT22;7210;51.502;10.722;2023-11-21T05:31:43;3.30;1.00
14252;DHT22;7210;51.502;10.722;2023-11-21T05:34:10;3.30;1.00
14252;DHT22;7210;51.502;10.722;2023-11-21T05:36:46;3.30;1.00
14252;DHT22;7210;51.502;10.722;2023-11-21T05:39:14;3.30;1.00
14252;DHT22;7210;51.502;10.722;2023-11-21T05:41:43;3.20;1.00
14252;DHT22;7210;51.502;10.722;2023-11-21T05:44:11;3.30;1.00
14252;DHT22;7210;51.502;10.722;2023-11-21T05:46:40;3.30;1.00
14252;DHT22;7210;51.502;10.722;2023-11-21T05:49:10;3.30;1.00
14252;DHT22;7210;51.502;10.722;2023-11-21T05:51:46;3.30;1.00
14252;DHT22;7210;51.502;10.722;2023-11-21T05:54:16;3.50;1.00
14252;DHT22;7210;51.502;10.722;2023-11-21T05:56:43;3.60;1.00
14252;DHT22;7210;51.502;10.722;2023-11-21T05:59:11;3.60;1.00
14252;DHT22;7210;51.502;10.722;2023-11-21T06:01:40;3.70;1.00
14252;DHT22;7210;51.502;10.722;2023-11-21T06:04:16;3.70;1.00
14252;DHT22;7210;51.502;10.722;2023-11-21T06:06:46;3.80;1.00
14252;DHT22;7210;51.502;10.722;2023-11-21T06:09:13;3.90;1.00
14252;DHT22;7210;51.502;10.722;2023-11-21T06:11:40;3.90;1.00
14252;DHT22;7210;51.502;10.722;2023-11-21T06:14:07;3.90;1.00
14252;DHT22;7210;51.502;10.722;2023-11-21T06:16:36;3.90;1.00
14252;DHT22;7210;51.502;10.722;2023-11-21T06:19:03;4.00;1.00
14252;DHT22;7210;51.502;10.722;2023-11-21T06:21:31;4.00;1.00
14252;DHT22;7210;51.502;10.722;2023-11-21T06:24:05;4.00;1.00
14252;DHT22;7210;51.502;10.722;2023-11-21T06:26:32;4.00;1.00
14252;DHT22;7210;51.502;10.722;2023-11-21T06:29:00;4.00;1.00
14252;DHT22;7210;51.502;10.722;2023-11-21T06:31:36;4.00;1.00
14252;DHT22;7210;51.502;10.722;2023-11-21T06:34:03;4.00;1.00
14252;DHT22;7210;51.502;10.722;2023-11-21T06:36:35;4.10;1.00
14252;DHT22;7210;51.502;10.722;2023-11-21T06:39:04;4.10;1.00
14252;DHT22;7210;51.502;10.722;2023-11-21T06:41:34;4.10;1.00
14252;DHT22;7210;51.502;10.722;2023-11-21T06:44:04;4.20;1.00
14252;DHT22;7210;51.502;10.722;2023-11-21T06:46:31;4.30;1.00
14252;DHT22;7210;51.502;10.722;2023-11-21T06:49:00;4.30;1.00
14252;DHT22;7210;51.502;10.722;2023-11-21T06:51:28;4.40;1.00
14252;DHT22;7210;51.502;10.722;2023-11-21T06:54:22;4.50;1.00
14252;DHT22;7210;51.502;10.722;2023-11-21T06:57:04;4.50;1.00
14252;DHT22;7210;51.502;10.722;2023-11-21T06:59:31;4.60;1.00
14252;DHT22;7210;51.502;10.722;2023-11-21T07:02:04;4.70;1.00
14252;DHT22;7210;51.502;10.722;2023-11-21T07:04:33;4.90;1.00
14252;DHT22;7210;51.502;10.722;2023-11-21T07:07:02;5.00;1.00
14252;DHT22;7210;51.502;10.722;2023-11-21T07:09:29;5.00;1.00
14252;DHT22;7210;51.502;10.722;2023-11-21T07:11:58;5.00;1.00
14252;DHT22;7210;51.502;10.722;2023-11-21T07:14:25;5.00;1.00
14252;DHT22;7210;51.502;10.722;2023-11-21T07:16:52;5.00;1.00
14252;DHT22;7210;51.502;10.722;2023-11-21T07:19:22;5.00;1.00
14252;DHT22;7210;51.502;10.722;2023-11-21T07:21:54;5.10;1.00
14252;DHT22;7210;51.502;10.722;2023-11-21T07:24:22;5.10;1.00
14252;DHT22;7210;51.502;10.722;2023-11-21T07:26:49;5.10;1.00
14252;DHT22;7210;51.502;10.722;2023-11-21T07:29:16;5.30;1.00
14252;DHT22;7210;51.502;10.722;2023-11-21T07:31:43;5.50;1.00
14252;DHT22;7210;51.502;10.722;2023-11-21T07:34:10;5.50;1.00
14252;DHT22;7210;51.502;10.722;2023-11-21T07:36:46;5.60;1.00
14252;DHT22;7210;51.502;10.722;2023-11-21T07:39:15;5.60;1.00
14252;DHT22;7210;51.502;10.722;2023-11-21T07:41:42;5.70;1.00
14252;DHT22;7210;51.502;10.722;2023-11-21T07:44:22;5.80;1.00
14252;DHT22;7210;51.502;10.722;2023-11-21T07:46:49;5.80;1.00
14252;DHT22;7210;51.502;10.722;2023-11-21T07:49:16;5.90;1.00
14252;DHT22;7210;51.502;10.722;2023-11-21T07:51:46;5.90;1.00
14252;DHT22;7210;51.502;10.722;2023-11-21T07:54:15;5.90;1.00
14252;DHT22;7210;51.502;10.722;2023-11-21T07:56:42;6.00;1.00
14252;DHT22;7210;51.502;10.722;2023-11-21T07:59:10;6.10;1.00
14252;DHT22;7210;51.502;10.722;2023-11-21T08:01:46;6.10;1.00
14252;DHT22;7210;51.502;10.722;2023-11-21T08:04:40;6.20;1.00
14252;DHT22;7210;51.502;10.722;2023-11-21T08:07:07;6.20;1.00
14252;DHT22;7210;51.502;10.722;2023-11-21T08:09:48;6.20;1.00
14252;DHT22;7210;51.502;10.722;2023-11-21T08:12:22;6.20;1.00
14252;DHT22;7210;51.502;10.722;2023-11-21T08:14:50;6.20;1.00
14252;DHT22;7210;51.502;10.722;2023-11-21T08:17:22;6.20;1.00
14252;DHT22;7210;51.502;10.722;2023-11-21T08:19:52;6.30;1.00
14252;DHT22;7210;51.502;10.722;2023-11-21T08:22:22;6.30;1.00
14252;DHT22;7210;51.502;10.722;2023-11-21T08:24:54;6.30;1.00
14252;DHT22;7210;51.502;10.722;2023-11-21T08:27:21;6.30;1.00
14252;DHT22;7210;51.502;10.722;2023-11-21T08:29:48;6.40;1.00
14252;DHT22;7210;51.502;10.722;2023-11-21T08:32:16;6.40;1.00
14252;DHT22;7210;51.502;10.722;2023-11-21T08:34:43;6.40;1.00
14252;DHT22;7210;51.502;10.722;2023-11-21T08:37:11;6.40;1.00
14252;DHT22;7210;51.502;10.722;2023-11-21T08:39:38;6.40;1.00
14252;DHT22;7210;51.502;10.722;2023-11-21T08:42:08;6.50;1.00
14252;DHT22;7210;51.502;10.722;2023-11-21T08:44:35;6.50;1.00
14252;DHT22;7210;51.502;10.722;2023-11-21T08:47:04;6.50;1.00
14252;DHT22;7210;51.502;10.722;2023-11-21T08:49:31;6.50;14.80
14252;DHT22;7210;51.502;10.722;2023-11-21T08:51:58;6.50;14.60
14252;DHT22;7210;51.502;10.722;2023-11-21T08:54:26;6.50;19.20
14252;DHT22;7210;51.502;10.722;2023-11-21T08:56:53;6.50;23.50
14252;DHT22;7210;51.502;10.722;2023-11-21T08:59:21;6.50;23.30
14252;DHT22;7210;51.502;10.722;2023-11-21T09:01:49;6.60;28.50
14252;DHT22;7210;51.502;10.722;2023-11-21T09:04:16;6.60;44.80
14252;DHT22;7210;51.502;10.722;2023-11-21T09:06:43;6.60;57.70
14252;DHT22;7210;51.502;10.722;2023-11-21T09:09:10;6.60;57.90
14252;DHT22;7210;51.502;10.722;2023-11-21T09:11:37;6.60;69.30
14252;DHT22;7210;51.502;10.722;2023-11-21T09:14:04;6.60;70.40
14252;DHT22;7210;51.502;10.722;2023-11-21T09:16:33;6.60;78.30
14252;DHT22;7210;51.502;10.722;2023-11-21T09:19:04;6.60;73.70
14252;DHT22;7210;51.502;10.722;2023-11-21T09:21:32;6.60;75.90
14252;DHT22;7210;51.502;10.722;2023-11-21T09:24:00;6.60;76.00
14252;DHT22;7210;51.502;10.722;2023-11-21T09:26:27;6.60;68.50
14252;DHT22;7210;51.502;10.722;2023-11-21T09:28:55;6.70;99.90
14252;DHT22;7210;51.502;10.722;2023-11-21T09:31:22;6.60;74.10
14252;DHT22;7210;51.502;10.722;2023-11-21T09:33:51;6.70;59.10
14252;DHT22;7210;51.502;10.722;2023-11-21T09:36:18;7.10;15.80
14252;DHT22;7210;51.502;10.722;2023-11-21T09:38:47;7.40;87.80
14252;DHT22;7210;51.502;10.722;2023-11-21T09:41:19;7.30;99.90
14252;DHT22;7210;51.502;10.722;2023-11-21T09:43:49;7.30;99.90
14252;DHT22;7210;51.502;10.722;2023-11-21T09:46:20;7.20;99.90
14252;DHT22;7210;51.502;10.722;2023-11-21T09:48:54;7.10;99.90
14252;DHT22;7210;51.502;10.722;2023-11-21T09:51:27;7.10;99.90
14252;DHT22;7210;51.502;10.722;2023-11-21T09:53:57;7.10;99.90
14252;DHT22;7210;51.502;10.722;2023-11-21T09:56:27;7.10;99.90
14252;DHT22;7210;51.502;10.722;2023-11-21T09:58:55;7.10;99.90
14252;DHT22;7210;51.502;10.722;2023-11-21T10:01:29;7.10;99.90
14252;DHT22;7210;51.502;10.722;2023-11-21T10:03:57;7.10;99.90
14252;DHT22;7210;51.502;10.722;2023-11-21T10:06:26;7.10;99.90
14252;DHT22;7210;51.502;10.722;2023-11-21T10:08:54;7.00;99.90
14252;DHT22;7210;51.502;10.722;2023-11-21T10:11:24;7.00;99.90
14252;DHT22;7210;51.502;10.722;2023-11-21T10:13:52;7.10;99.90
14252;DHT22;7210;51.502;10.722;2023-11-21T10:16:21;7.20;99.90
14252;DHT22;7210;51.502;10.722;2023-11-21T10:18:52;7.10;99.90
14252;DHT22;7210;51.502;10.722;2023-11-21T10:21:21;7.10;99.90
14252;DHT22;7210;51.502;10.722;2023-11-21T10:23:50;7.10;99.90
14252;DHT22;7210;51.502;10.722;2023-11-21T10:26:20;7.10;99.90
14252;DHT22;7210;51.502;10.722;2023-11-21T10:28:56;7.10;99.90
14252;DHT22;7210;51.502;10.722;2023-11-21T10:31:23;7.10;99.90
14252;DHT22;7210;51.502;10.722;2023-11-21T10:33:50;7.00;99.90
14252;DHT22;7210;51.502;10.722;2023-11-21T10:36:30;7.00;99.90
14252;DHT22;7210;51.502;10.722;2023-11-21T10:39:00;7.00;99.90
14252;DHT22;7210;51.502;10.722;2023-11-21T10:41:27;7.00;99.90
14252;DHT22;7210;51.502;10.722;2023-11-21T10:43:58;7.10;99.90
14252;DHT22;7210;51.502;10.722;2023-11-21T10:46:25;7.10;99.90
14252;DHT22;7210;51.502;10.722;2023-11-21T10:48:55;7.20;99.90
14252;DHT22;7210;51.502;10.722;2023-11-21T10:51:22;7.30;99.90
14252;DHT22;7210;51.502;10.722;2023-11-21T10:53:52;7.30;99.90
14252;DHT22;7210;51.502;10.722;2023-11-21T10:56:23;7.30;99.90
14252;DHT22;7210;51.502;10.722;2023-11-21T10:58:50;7.40;99.90
14252;DHT22;7210;51.502;10.722;2023-11-21T11:01:18;7.40;99.90
14252;DHT22;7210;51.502;10.722;2023-11-21T11:03:47;7.50;99.90
14252;DHT22;7210;51.502;10.722;2023-11-21T11:06:15;7.60;99.90
14252;DHT22;7210;51.502;10.722;2023-11-21T11:08:44;7.70;99.90
14252;DHT22;7210;51.502;10.722;2023-11-21T11:11:12;7.50;99.90
14252;DHT22;7210;51.502;10.722;2023-11-21T11:13:43;7.50;99.90
14252;DHT22;7210;51.502;10.722;2023-11-21T11:16:13;7.60;99.90
14252;DHT22;7210;51.502;10.722;2023-11-21T11:18:43;7.60;99.90
14252;DHT22;7210;51.502;10.722;2023-11-21T11:21:19;7.50;99.90
14252;DHT22;7210;51.502;10.722;2023-11-21T11:24:11;7.60;99.90
14252;DHT22;7210;51.502;10.722;2023-11-21T11:26:47;7.60;99.90
14252;DHT22;7210;51.502;10.722;2023-11-21T11:29:26;7.70;99.90
14252;DHT22;7210;51.502;10.722;2023-11-21T11:32:07;7.70;99.90
14252;DHT22;7210;51.502;10.722;2023-11-21T11:34:43;7.70;99.90
14252;DHT22;7210;51.502;10.722;2023-11-21T11:37:12;7.60;99.90
14252;DHT22;7210;51.502;10.722;2023-11-21T11:39:40;7.60;99.90
14252;DHT22;7210;51.502;10.722;2023-11-21T11:42:12;7.80;99.90
14252;DHT22;7210;51.502;10.722;2023-11-21T11:44:52;7.90;99.90
14252;DHT22;7210;51.502;10.722;2023-11-21T11:47:23;7.90;99.90
14252;DHT22;7210;51.502;10.722;2023-11-21T11:50:06;7.90;99.90
14252;DHT22;7210;51.502;10.722;2023-11-21T11:52:41;8.00;99.90
14252;DHT22;7210;51.502;10.722;2023-11-21T11:55:10;8.00;99.90
14252;DHT22;7210;51.502;10.722;2023-11-21T11:57:39;7.80;99.90
14252;DHT22;7210;51.502;10.722;2023-11-21T12:00:11;7.90;99.90
14252;DHT22;7210;51.502;10.722;2023-11-21T12:02:42;7.80;99.90
14252;DHT22;7210;51.502;10.722;2023-11-21T12:05:11;7.70;99.90
14252;DHT22;7210;51.502;10.722;2023-11-21T12:07:48;7.70;99.90
14252;DHT22;7210;51.502;10.722;2023-11-21T12:10:17;7.80;99.90
14252;DHT22;7210;51.502;10.722;2023-11-21T12:12:47;7.70;99.90
14252;DHT22;7210;51.502;10.722;2023-11-21T12:15:15;7.70;99.90
14252;DHT22;7210;51.502;10.722;2023-11-21T12:17:43;7.60;99.90
14252;DHT22;7210;51.502;10.722;2023-11-21T12:20:11;7.60;99.90
14252;DHT22;7210;51.502;10.722;2023-11-21T12:22:43;7.60;99.90
14252;DHT22;7210;51.502;10.722;2023-11-21T12:25:13;7.70;99.90
14252;DHT22;7210;51.502;10.722;2023-11-21T12:27:43;7.60;99.90
14252;DHT22;7210;51.502;10.722;2023-11-21T12:30:19;7.60;99.90
14252;DHT22;7210;51.502;10.722;2023-11-21T12:32:48;7.60;99.90
14252;DHT22;7210;51.502;10.722;2023-11-21T12:35:17;7.40;99.90
14252;DHT22;7210;51.502;10.722;2023-11-21T12:37:45;7.40;99.90
14252;DHT22;7210;51.502;10.722;2023-11-21T12:40:14;7.30;99.90
14252;DHT22;7210;51.502;10.722;2023-11-21T12:42:44;7.40;99.90
14252;DHT22;7210;51.502;10.722;2023-11-21T12:45:20;7.40;99.90
14252;DHT22;7210;51.502;10.722;2023-11-21T12:47:49;7.40;99.90
14252;DHT22;7210;51.502;10.722;2023-11-21T12:50:19;7.30;99.90
14252;DHT22;7210;51.502;10.722;2023-11-21T12:52:49;7.30;99.90
14252;DHT22;7210;51.502;10.722;2023-11-21T12:55:18;7.40;99.90
14252;DHT22;7210;51.502;10.722;2023-11-21T12:57:48;7.30;99.90
14252;DHT22;7210;51.502;10.722;2023-11-21T13:00:20;7.30;99.90
14252;DHT22;7210;51.502;10.722;2023-11-21T13:02:57;7.20;99.90
14252;DHT22;7210;51.502;10.722;2023-11-21T13:05:29;7.20;99.90
14252;DHT22;7210;51.502;10.722;2023-11-21T13:07:57;7.20;99.90
14252;DHT22;7210;51.502;10.722;2023-11-21T13:10:26;7.20;99.90
14252;DHT22;7210;51.502;10.722;2023-11-21T13:12:56;7.10;99.90
14252;DHT22;7210;51.502;10.722;2023-11-21T13:15:27;7.00;99.90
14252;DHT22;7210;51.502;10.722;2023-11-21T13:17:57;6.80;99.90
14252;DHT22;7210;51.502;10.722;2023-11-21T13:20:24;6.90;99.90
14252;DHT22;7210;51.502;10.722;2023-11-21T13:22:52;7.10;99.90
14252;DHT22;7210;51.502;10.722;2023-11-21T13:25:23;7.00;99.90
14252;DHT22;7210;51.502;10.722;2023-11-21T13:27:53;7.10;99.90
14252;DHT22;7210;51.502;10.722;2023-11-21T13:30:20;7.10;99.90
14252;DHT22;7210;51.502;10.722;2023-11-21T13:32:53;7.00;99.90
14252;DHT22;7210;51.502;10.722;2023-11-21T13:35:23;6.80;99.90
14252;DHT22;7210;51.502;10.722;2023-11-21T13:37:57;6.80;99.90
14252;DHT22;7210;51.502;10.722;2023-11-21T13:40:26;6.80;99.90
14252;DHT22;7210;51.502;10.722;2023-11-21T13:42:53;6.80;99.90
14252;DHT22;7210;51.502;10.722;2023-11-21T13:45:21;6.70;99.90
14252;DHT22;7210;51.502;10.722;2023-11-21T13:47:50;6.60;99.90
14252;DHT22;7210;51.502;10.722;2023-11-21T13:50:25;6.50;99.90
14252;DHT22;7210;51.502;10.722;2023-11-21T13:52:59;6.40;99.90
14252;DHT22;7210;51.502;10.722;2023-11-21T13:55:34;6.40;99.90
14252;DHT22;7210;51.502;10.722;2023-11-21T13:58:02;6.50;99.90
14252;DHT22;7210;51.502;10.722;2023-11-21T14:00:46;6.40;99.90
14252;DHT22;7210;51.502;10.722;2023-11-21T14:03:22;6.50;99.90
14252;DHT22;7210;51.502;10.722;2023-11-21T14:06:00;6.40;99.90
14252;DHT22;7210;51.502;10.722;2023-11-21T14:08:34;6.30;99.90
14252;DHT22;7210;51.502;10.722;2023-11-21T14:11:01;6.30;99.90
14252;DHT22;7210;51.502;10.722;2023-11-21T14:13:32;6.30;99.90
14252;DHT22;7210;51.502;10.722;2023-11-21T14:15:59;6.30;99.90
14252;DHT22;7210;51.502;10.722;2023-11-21T14:18:28;6.40;99.90
14252;DHT22;7210;51.502;10.722;2023-11-21T14:21:01;6.40;99.90
14252;DHT22;7210;51.502;10.722;2023-11-21T14:23:28;6.30;99.90
14252;DHT22;7210;51.502;10.722;2023-11-21T14:25:55;6.30;99.90
14252;DHT22;7210;51.502;10.722;2023-11-21T14:28:23;6.30;99.90
14252;DHT22;7210;51.502;10.722;2023-11-21T14:30:50;6.30;99.90
14252;DHT22;7210;51.502;10.722;2023-11-21T14:33:17;6.30;99.90
14252;DHT22;7210;51.502;10.722;2023-11-21T14:35:44;6.20;99.90
14252;DHT22;7210;51.502;10.722;2023-11-21T14:38:14;6.20;99.90
14252;DHT22;7210;51.502;10.722;2023-11-21T14:40:41;6.10;99.90
14252;DHT22;7210;51.502;10.722;2023-11-21T14:43:08;6.10;99.90
14252;DHT22;7210;51.502;10.722;2023-11-21T14:45:35;6.10;99.90
14252;DHT22;7210;51.502;10.722;2023-11-21T14:48:03;6.10;99.90
14252;DHT22;7210;51.502;10.722;2023-11-21T14:50:34;6.10;99.90
14252;DHT22;7210;51.502;10.722;2023-11-21T14:53:11;6.00;99.90
14252;DHT22;7210;51.502;10.722;2023-11-21T14:55:40;5.90;99.90
14252;DHT22;7210;51.502;10.722;2023-11-21T14:58:22;5.90;99.90
14252;DHT22;7210;51.502;10.722;2023-11-21T15:00:54;6.00;99.90
14252;DHT22;7210;51.502;10.722;2023-11-21T15:03:29;5.90;99.90
14252;DHT22;7210;51.502;10.722;2023-11-21T15:06:15;5.90;99.90
14252;DHT22;7210;51.502;10.722;2023-11-21T15:08:59;6.00;99.90
14252;DHT22;7210;51.502;10.722;2023-11-21T15:11:44;5.90;99.90
14252;DHT22;7210;51.502;10.722;2023-11-21T15:14:13;5.80;99.90
14252;DHT22;7210;51.502;10.722;2023-11-21T15:16:46;5.70;99.90
14252;DHT22;7210;51.502;10.722;2023-11-21T15:19:17;5.70;99.90
14252;DHT22;7210;51.502;10.722;2023-11-21T15:21:50;5.70;99.90
14252;DHT22;7210;51.502;10.722;2023-11-21T15:24:17;5.70;99.90
14252;DHT22;7210;51.502;10.722;2023-11-21T15:26:48;5.70;99.90
14252;DHT22;7210;51.502;10.722;2023-11-21T15:29:16;5.70;99.90
14252;DHT22;7210;51.502;10.722;2023-11-21T15:31:46;5.80;99.90
14252;DHT22;7210;51.502;10.722;2023-11-21T15:34:14;5.70;99.90
14252;DHT22;7210;51.502;10.722;2023-11-21T15:36:41;5.60;99.90
14252;DHT22;7210;51.502;10.722;2023-11-21T15:39:08;5.60;99.90
14252;DHT22;7210;51.502;10.722;2023-11-21T15:41:37;5.60;99.90
14252;DHT22;7210;51.502;10.722;2023-11-21T15:44:07;5.70;99.90
14252;DHT22;7210;51.502;10.722;2023-11-21T15:46:40;5.70;99.90
14252;DHT22;7210;51.502;10.722;2023-11-21T15:49:08;5.70;99.90
14252;DHT22;7210;51.502;10.722;2023-11-21T15:51:39;5.70;99.90
14252;DHT22;7210;51.502;10.722;2023-11-21T15:54:06;5.60;99.90
14252;DHT22;7210;51.502;10.722;2023-11-21T15:56:34;5.50;99.90
14252;DHT22;7210;51.502;10.722;2023-11-21T15:59:01;5.60;99.90
14252;DHT22;7210;51.502;10.722;2023-11-21T16:01:31;5.50;99.90
14252;DHT22;7210;51.502;10.722;2023-11-21T16:03:58;5.50;99.90
14252;DHT22;7210;51.502;10.722;2023-11-21T16:06:27;5.40;99.90
14252;DHT22;7210;51.502;10.722;2023-11-21T16:08:55;5.50;99.90